Time;durP1;ratioP1;P1;durP2;ratioP2;P2;SDS_P1;SDS_P2;PMS_P1;PMS_P2;Temp;Humidity;BMP_temperature;BMP_pressure;BME280_temperature;BME280_humidity;BME280_pressure;Samples;Min_cycle;Max_cycle;Signal;HPM_P1;HPM_P2
2021/03/19 00:00:12;;;;;;;;;;;15.40;62.90;;;;;;5039653;28;20450;-74
2021/03/19 00:02:37;;;;;;;;;;;15.40;62.90;;;;;;5042379;28;20007;-75
2021/03/19 00:05:05;;;;;;;;;;;15.30;62.90;;;;;;5068815;28;19917;-76
2021/03/19 00:07:41;;;;;;;;;;;15.40;62.90;;;;;;5033938;28;19920;-74
2021/03/19 00:10:07;;;;;;;;;;;15.30;62.90;;;;;;5049079;28;19967;-74
2021/03/19 00:12:32;;;;;;;;;;;15.40;62.90;;;;;;5028719;28;19963;-74
2021/03/19 00:14:57;;;;;;;;;;;15.40;62.90;;;;;;5038622;28;20024;-74
2021/03/19 00:17:23;;;;;;;;;;;15.30;62.90;;;;;;5028530;28;19913;-75
2021/03/19 00:19:49;;;;;;;;;;;15.30;62.90;;;;;;5060457;28;19912;-74
2021/03/19 00:22:14;;;;;;;;;;;15.40;62.90;;;;;;5061436;28;19963;-75
2021/03/19 00:24:40;;;;;;;;;;;15.40;62.90;;;;;;5049734;28;19917;-75
2021/03/19 00:27:05;;;;;;;;;;;15.30;62.90;;;;;;5046290;28;20004;-75
2021/03/19 00:29:31;;;;;;;;;;;15.30;62.90;;;;;;5027391;28;19924;-76
2021/03/19 00:31:56;;;;;;;;;;;15.40;62.90;;;;;;5044458;28;19913;-75
2021/03/19 00:34:22;;;;;;;;;;;15.40;62.90;;;;;;5048417;28;19916;-76
2021/03/19 00:36:47;;;;;;;;;;;15.40;62.90;;;;;;5052500;28;20028;-75
2021/03/19 00:39:13;;;;;;;;;;;15.40;62.90;;;;;;5043972;28;19952;-75
2021/03/19 00:41:38;;;;;;;;;;;15.40;62.90;;;;;;5036551;28;19999;-75
2021/03/19 00:44:04;;;;;;;;;;;15.40;62.90;;;;;;5030891;28;19995;-75
2021/03/19 00:46:29;;;;;;;;;;;15.30;62.90;;;;;;5034615;28;19916;-74
2021/03/19 00:48:55;;;;;;;;;;;15.40;62.90;;;;;;5041184;28;19920;-75
2021/03/19 00:51:20;;;;;;;;;;;15.40;62.90;;;;;;5053188;28;20062;-75
2021/03/19 00:53:46;;;;;;;;;;;15.40;62.90;;;;;;5050897;28;20426;-76
2021/03/19 00:56:11;;;;;;;;;;;15.40;62.90;;;;;;5043180;28;19920;-75
2021/03/19 00:58:37;;;;;;;;;;;15.40;62.90;;;;;;5048517;28;19920;-76
2021/03/19 01:01:03;;;;;;;;;;;15.40;62.90;;;;;;5026550;28;20358;-75
2021/03/19 01:03:28;;;;;;;;;;;15.40;62.90;;;;;;5028475;28;20476;-74
2021/03/19 01:05:58;;;;;;;;;;;15.40;62.90;;;;;;5051722;28;19917;-75
2021/03/19 01:08:24;;;;;;;;;;;15.30;62.90;;;;;;5041006;28;20370;-75
2021/03/19 01:10:51;;;;;;;;;;;15.30;62.90;;;;;;5044546;28;19919;-74
2021/03/19 01:13:17;;;;;;;;;;;15.40;62.90;;;;;;5034215;28;19939;-75
2021/03/19 01:15:43;;;;;;;;;;;15.30;62.90;;;;;;5029988;28;19917;-76
2021/03/19 01:18:09;;;;;;;;;;;15.40;62.90;;;;;;5045905;28;19920;-76
2021/03/19 01:20:36;;;;;;;;;;;15.40;62.90;;;;;;5036173;28;19967;-75
2021/03/19 01:23:02;;;;;;;;;;;15.30;62.90;;;;;;5044522;28;20368;-75
2021/03/19 01:25:28;;;;;;;;;;;15.30;62.90;;;;;;5040351;28;19917;-74
2021/03/19 01:27:54;;;;;;;;;;;15.30;62.90;;;;;;5051283;28;19963;-77
2021/03/19 01:30:21;;;;;;;;;;;15.30;62.90;;;;;;5033421;28;19987;-75
2021/03/19 01:32:48;;;;;;;;;;;15.30;62.90;;;;;;5050206;28;19913;-74
2021/03/19 01:35:14;;;;;;;;;;;15.30;62.90;;;;;;5033671;28;20599;-73
2021/03/19 01:37:40;;;;;;;;;;;15.40;62.90;;;;;;5038036;28;20432;-76
2021/03/19 01:40:06;;;;;;;;;;;15.40;62.90;;;;;;5052834;28;19921;-75
2021/03/19 01:42:33;;;;;;;;;;;15.30;62.90;;;;;;5035814;28;19923;-75
2021/03/19 01:45:01;;;;;;;;;;;15.30;62.90;;;;;;5051619;28;19917;-76
2021/03/19 01:47:46;;;;;;;;;;;15.30;62.90;;;;;;5069194;28;19913;-76
2021/03/19 01:50:32;;;;;;;;;;;15.30;62.90;;;;;;5032314;28;20342;-75
2021/03/19 01:53:16;;;;;;;;;;;15.40;62.90;;;;;;5051342;28;19913;-74
2021/03/19 01:56:00;;;;;;;;;;;15.30;62.90;;;;;;5065142;28;19974;-75
2021/03/19 01:58:46;;;;;;;;;;;15.30;62.90;;;;;;5064422;28;19952;-75
2021/03/19 02:01:30;;;;;;;;;;;15.30;62.90;;;;;;5062805;28;19913;-76
2021/03/19 02:04:15;;;;;;;;;;;15.30;62.90;;;;;;5059661;28;19921;-75
2021/03/19 02:06:59;;;;;;;;;;;15.30;62.90;;;;;;5060702;28;20342;-75
2021/03/19 02:09:43;;;;;;;;;;;15.30;62.90;;;;;;5053220;28;20270;-75
2021/03/19 02:12:28;;;;;;;;;;;15.40;62.90;;;;;;5067004;28;20018;-75
2021/03/19 02:15:12;;;;;;;;;;;15.30;62.90;;;;;;5045966;28;19916;-75
2021/03/19 02:17:56;;;;;;;;;;;15.30;62.90;;;;;;5045314;28;21499;-76
2021/03/19 02:20:44;;;;;;;;;;;15.30;62.90;;;;;;5039750;28;19920;-75
2021/03/19 02:23:28;;;;;;;;;;;15.30;62.90;;;;;;5024835;28;19921;-75
2021/03/19 02:26:13;;;;;;;;;;;15.30;62.90;;;;;;5051502;28;19912;-76
2021/03/19 02:28:57;;;;;;;;;;;15.30;62.90;;;;;;5065800;28;20412;-75
2021/03/19 02:31:41;;;;;;;;;;;15.40;62.90;;;;;;5053158;28;19952;-75
2021/03/19 02:34:07;;;;;;;;;;;15.30;62.90;;;;;;5044576;28;20007;-74
2021/03/19 02:36:32;;;;;;;;;;;15.30;62.90;;;;;;5058596;28;20000;-74
2021/03/19 02:38:58;;;;;;;;;;;15.30;62.90;;;;;;5045735;28;19927;-74
2021/03/19 02:41:23;;;;;;;;;;;15.30;62.90;;;;;;5052283;28;20374;-75
2021/03/19 02:43:49;;;;;;;;;;;15.30;62.90;;;;;;5049355;28;19970;-76
2021/03/19 02:46:15;;;;;;;;;;;15.30;62.90;;;;;;5026437;28;21748;-75
2021/03/19 02:48:40;;;;;;;;;;;15.30;62.90;;;;;;5051848;28;20008;-75
2021/03/19 02:51:12;;;;;;;;;;;15.30;62.90;;;;;;5033964;28;19912;-74
2021/03/19 02:53:37;;;;;;;;;;;15.30;62.90;;;;;;5025789;28;20039;-75
2021/03/19 02:56:08;;;;;;;;;;;15.30;62.90;;;;;;5055189;28;20003;-75
2021/03/19 02:58:34;;;;;;;;;;;15.30;62.90;;;;;;5045049;28;20004;-75
2021/03/19 03:01:00;;;;;;;;;;;15.30;63.00;;;;;;5050915;28;20003;-75
2021/03/19 03:03:25;;;;;;;;;;;15.30;62.90;;;;;;5048082;28;20387;-74
2021/03/19 03:05:51;;;;;;;;;;;15.30;62.90;;;;;;5039168;28;19917;-73
2021/03/19 03:08:18;;;;;;;;;;;15.30;63.00;;;;;;5032180;28;19913;-74
2021/03/19 03:10:44;;;;;;;;;;;15.30;63.00;;;;;;5039022;28;19921;-74
2021/03/19 03:13:10;;;;;;;;;;;15.30;63.00;;;;;;5048783;28;19927;-74
2021/03/19 03:15:36;;;;;;;;;;;15.30;63.00;;;;;;5023498;28;19913;-74
2021/03/19 03:18:02;;;;;;;;;;;15.30;62.90;;;;;;5045240;28;19912;-74
2021/03/19 03:20:32;;;;;;;;;;;15.30;63.00;;;;;;5048738;28;19913;-74
2021/03/19 03:22:57;;;;;;;;;;;15.30;62.90;;;;;;5052497;28;19917;-74
2021/03/19 03:25:24;;;;;;;;;;;15.30;63.00;;;;;;5036964;28;19924;-73
2021/03/19 03:27:50;;;;;;;;;;;15.30;62.90;;;;;;5043246;28;20355;-74
2021/03/19 03:30:21;;;;;;;;;;;15.30;63.00;;;;;;5045112;28;19917;-74
2021/03/19 03:32:47;;;;;;;;;;;15.30;63.00;;;;;;5047345;28;19913;-74
2021/03/19 03:35:13;;;;;;;;;;;15.30;63.00;;;;;;5048091;28;20015;-74
2021/03/19 03:37:39;;;;;;;;;;;15.30;62.90;;;;;;5053693;28;19917;-74
2021/03/19 03:40:06;;;;;;;;;;;15.30;62.90;;;;;;5046650;28;19971;-74
2021/03/19 03:42:32;;;;;;;;;;;15.30;63.00;;;;;;5047359;28;19917;-74
2021/03/19 03:44:57;;;;;;;;;;;15.30;62.90;;;;;;5059569;28;19931;-74
2021/03/19 03:47:23;;;;;;;;;;;15.30;62.90;;;;;;5061644;28;20282;-74
2021/03/19 03:49:48;;;;;;;;;;;15.30;62.90;;;;;;5037048;28;19998;-74
2021/03/19 03:52:14;;;;;;;;;;;15.30;62.90;;;;;;5048756;28;19913;-74
2021/03/19 03:54:40;;;;;;;;;;;15.30;62.90;;;;;;5017883;28;19920;-74
2021/03/19 03:57:06;;;;;;;;;;;15.30;62.90;;;;;;5024966;28;19928;-74
2021/03/19 03:59:31;;;;;;;;;;;15.30;62.90;;;;;;5044312;28;19913;-76
2021/03/19 04:01:57;;;;;;;;;;;15.30;62.90;;;;;;5044007;28;19924;-74
2021/03/19 04:04:22;;;;;;;;;;;15.30;62.90;;;;;;5023877;28;19925;-74
2021/03/19 04:06:48;;;;;;;;;;;15.30;62.90;;;;;;5058505;28;19928;-74
2021/03/19 04:09:13;;;;;;;;;;;15.30;62.90;;;;;;5054705;28;19970;-73
2021/03/19 04:11:39;;;;;;;;;;;15.30;62.90;;;;;;5047428;28;20392;-74
2021/03/19 04:14:05;;;;;;;;;;;15.30;62.90;;;;;;5066158;28;19913;-76
2021/03/19 04:16:30;;;;;;;;;;;15.30;62.90;;;;;;5032701;28;19913;-74
2021/03/19 04:18:56;;;;;;;;;;;15.30;62.90;;;;;;5050589;28;19913;-75
2021/03/19 04:21:21;;;;;;;;;;;15.30;62.90;;;;;;5062731;28;19923;-74
2021/03/19 04:23:48;;;;;;;;;;;15.30;63.00;;;;;;5054340;28;20404;-75
2021/03/19 04:26:19;;;;;;;;;;;15.30;63.00;;;;;;5037344;28;19924;-74
2021/03/19 04:28:45;;;;;;;;;;;15.30;62.90;;;;;;5043454;28;19913;-75
2021/03/19 04:31:10;;;;;;;;;;;15.30;62.90;;;;;;5053074;28;19955;-75
2021/03/19 04:33:36;;;;;;;;;;;15.30;63.00;;;;;;5052410;28;19971;-74
2021/03/19 04:36:04;;;;;;;;;;;15.30;63.00;;;;;;5050427;28;19969;-76
2021/03/19 04:38:30;;;;;;;;;;;15.30;62.90;;;;;;5053446;28;19913;-74
2021/03/19 04:40:55;;;;;;;;;;;15.30;62.90;;;;;;5045439;28;19935;-74
2021/03/19 04:43:21;;;;;;;;;;;15.30;62.90;;;;;;5031848;28;19921;-75
2021/03/19 04:45:47;;;;;;;;;;;15.30;63.00;;;;;;5029078;28;20278;-75
2021/03/19 04:48:13;;;;;;;;;;;15.30;62.90;;;;;;5020732;28;19924;-76
2021/03/19 04:50:38;;;;;;;;;;;15.30;62.90;;;;;;5049177;28;19939;-73
2021/03/19 04:53:04;;;;;;;;;;;15.30;62.90;;;;;;5060197;28;20396;-75
2021/03/19 04:55:29;;;;;;;;;;;15.30;62.90;;;;;;5035833;28;19927;-74
2021/03/19 04:57:55;;;;;;;;;;;15.30;62.90;;;;;;5053490;28;19917;-74
2021/03/19 05:00:21;;;;;;;;;;;15.30;62.90;;;;;;5047179;28;19999;-74
2021/03/19 05:02:51;;;;;;;;;;;15.30;62.90;;;;;;5029430;28;19963;-74
2021/03/19 05:05:18;;;;;;;;;;;15.30;62.90;;;;;;5060458;28;19917;-77
2021/03/19 05:07:44;;;;;;;;;;;15.30;62.90;;;;;;5049912;28;20325;-74
2021/03/19 05:10:10;;;;;;;;;;;15.30;62.90;;;;;;5029721;28;19913;-74
2021/03/19 05:12:36;;;;;;;;;;;15.30;62.90;;;;;;5026401;28;19920;-74
2021/03/19 05:15:02;;;;;;;;;;;15.30;62.90;;;;;;5033732;28;19913;-78
2021/03/19 05:17:30;;;;;;;;;;;15.30;62.90;;;;;;5043519;28;19913;-74
2021/03/19 05:19:56;;;;;;;;;;;15.30;62.90;;;;;;5048004;28;19912;-74
2021/03/19 05:22:22;;;;;;;;;;;15.30;63.00;;;;;;5035901;28;20028;-74
2021/03/19 05:24:47;;;;;;;;;;;15.30;62.90;;;;;;5040889;28;19967;-74
2021/03/19 05:27:13;;;;;;;;;;;15.30;62.90;;;;;;5047306;28;19917;-75
2021/03/19 05:29:39;;;;;;;;;;;15.30;62.90;;;;;;5032041;28;19913;-74
2021/03/19 05:32:04;;;;;;;;;;;15.30;62.90;;;;;;5043198;28;19921;-75
2021/03/19 05:34:30;;;;;;;;;;;15.30;62.90;;;;;;5034430;28;19913;-74
2021/03/19 05:36:55;;;;;;;;;;;15.30;62.90;;;;;;5070255;28;20015;-74
2021/03/19 05:39:21;;;;;;;;;;;15.30;62.90;;;;;;5066232;28;19967;-74
2021/03/19 05:41:46;;;;;;;;;;;15.30;62.90;;;;;;5030566;28;19917;-74
2021/03/19 05:44:14;;;;;;;;;;;15.30;62.90;;;;;;5052089;28;20328;-74
2021/03/19 05:46:50;;;;;;;;;;;15.30;62.90;;;;;;5032876;28;20368;-75
2021/03/19 05:49:18;;;;;;;;;;;15.30;62.80;;;;;;5048473;28;19920;-74
2021/03/19 05:51:46;;;;;;;;;;;15.30;62.90;;;;;;5067215;28;19988;-75
2021/03/19 05:54:18;;;;;;;;;;;15.30;62.80;;;;;;5036009;28;20011;-75
2021/03/19 05:56:44;;;;;;;;;;;15.30;62.80;;;;;;5050614;28;19917;-74
2021/03/19 05:59:09;;;;;;;;;;;15.30;62.80;;;;;;5024357;28;19913;-75
2021/03/19 06:01:36;;;;;;;;;;;15.30;62.80;;;;;;5050785;28;19970;-74
2021/03/19 06:04:02;;;;;;;;;;;15.30;62.80;;;;;;5047961;28;19936;-77
2021/03/19 06:06:46;;;;;;;;;;;15.30;62.80;;;;;;5024153;28;19913;-74
2021/03/19 06:09:21;;;;;;;;;;;15.30;62.80;;;;;;5042972;28;20366;-74
2021/03/19 06:11:51;;;;;;;;;;;15.30;62.70;;;;;;5047057;28;19991;-74
2021/03/19 06:14:17;;;;;;;;;;;15.30;62.70;;;;;;5032543;28;19913;-75
2021/03/19 06:16:44;;;;;;;;;;;15.30;62.70;;;;;;5030160;28;19921;-75
2021/03/19 06:19:29;;;;;;;;;;;15.40;62.70;;;;;;5038817;28;19913;-74
2021/03/19 06:22:06;;;;;;;;;;;15.30;62.70;;;;;;5044055;28;20413;-75
2021/03/19 06:24:33;;;;;;;;;;;15.30;62.70;;;;;;5066221;28;19924;-79
2021/03/19 06:27:14;;;;;;;;;;;15.30;62.70;;;;;;5037923;28;19913;-74
2021/03/19 06:29:48;;;;;;;;;;;15.30;62.70;;;;;;5030344;28;19913;-75
2021/03/19 06:32:19;;;;;;;;;;;15.30;62.70;;;;;;5041685;28;19917;-75
2021/03/19 06:34:50;;;;;;;;;;;15.40;62.70;;;;;;5044453;28;19913;-74
2021/03/19 06:37:23;;;;;;;;;;;15.30;62.60;;;;;;5054398;28;20316;-74
2021/03/19 06:39:51;;;;;;;;;;;15.40;62.60;;;;;;5021493;28;19921;-74
2021/03/19 06:42:20;;;;;;;;;;;15.40;62.50;;;;;;5031992;28;19925;-75
2021/03/19 06:45:01;;;;;;;;;;;15.40;62.50;;;;;;5052400;28;19921;-75
2021/03/19 06:47:43;;;;;;;;;;;15.40;62.50;;;;;;5034714;28;19920;-74
2021/03/19 06:50:35;;;;;;;;;;;15.30;62.50;;;;;;5046139;28;20067;-74
2021/03/19 06:53:18;;;;;;;;;;;15.40;62.50;;;;;;5016557;28;19952;-75
2021/03/19 06:55:45;;;;;;;;;;;15.40;62.50;;;;;;5045412;28;20381;-74
2021/03/19 06:58:11;;;;;;;;;;;15.40;62.50;;;;;;5028909;28;19923;-75
2021/03/19 07:00:38;;;;;;;;;;;15.40;62.50;;;;;;5028499;28;20373;-74
2021/03/19 07:03:12;;;;;;;;;;;15.40;62.40;;;;;;5064670;28;19982;-74
2021/03/19 07:05:57;;;;;;;;;;;15.40;62.40;;;;;;5034545;28;19917;-74
2021/03/19 07:08:29;;;;;;;;;;;15.50;62.40;;;;;;5047850;28;19940;-74
2021/03/19 07:11:05;;;;;;;;;;;15.40;62.40;;;;;;5040719;28;20370;-74
2021/03/19 07:13:53;;;;;;;;;;;15.40;62.30;;;;;;5061913;28;20458;-75
2021/03/19 07:16:22;;;;;;;;;;;15.50;62.30;;;;;;5041077;28;19960;-74
2021/03/19 07:18:50;;;;;;;;;;;15.50;62.10;;;;;;5041150;28;19921;-73
2021/03/19 07:21:22;;;;;;;;;;;15.50;62.10;;;;;;5043461;28;19978;-72
2021/03/19 07:24:06;;;;;;;;;;;15.50;62.00;;;;;;5043529;28;19936;-74
2021/03/19 07:26:34;;;;;;;;;;;15.60;61.90;;;;;;5040259;28;20359;-74
2021/03/19 07:29:13;;;;;;;;;;;15.60;61.90;;;;;;5030437;28;19917;-73
2021/03/19 07:31:56;;;;;;;;;;;15.60;61.80;;;;;;5051741;28;19913;-73
2021/03/19 07:34:40;;;;;;;;;;;15.70;61.80;;;;;;5041746;28;20311;-73
2021/03/19 07:37:18;;;;;;;;;;;15.60;61.70;;;;;;5052695;28;19955;-74
2021/03/19 07:40:06;;;;;;;;;;;15.70;61.70;;;;;;5052147;28;19978;-73
2021/03/19 07:42:35;;;;;;;;;;;15.60;61.70;;;;;;5034903;28;19928;-77
2021/03/19 07:45:03;;;;;;;;;;;15.70;61.70;;;;;;5044722;28;19924;-73
2021/03/19 07:47:34;;;;;;;;;;;15.60;61.70;;;;;;5028683;28;19912;-74
2021/03/19 07:50:04;;;;;;;;;;;15.70;61.70;;;;;;5064587;28;19936;-72
2021/03/19 07:52:56;;;;;;;;;;;15.60;61.70;;;;;;5051453;28;20002;-75
2021/03/19 07:55:40;;;;;;;;;;;15.70;61.60;;;;;;5051226;28;19983;-75
2021/03/19 07:58:23;;;;;;;;;;;15.70;61.70;;;;;;5050138;28;19920;-75
2021/03/19 08:00:54;;;;;;;;;;;15.70;61.70;;;;;;5050299;28;19990;-74
2021/03/19 08:03:29;;;;;;;;;;;15.60;61.80;;;;;;5054363;28;19924;-75
2021/03/19 08:05:55;;;;;;;;;;;15.60;61.80;;;;;;5032226;28;19917;-75
2021/03/19 08:08:29;;;;;;;;;;;15.60;61.80;;;;;;5035530;28;19957;-76
2021/03/19 08:10:55;;;;;;;;;;;15.70;61.70;;;;;;5020791;28;20003;-77
2021/03/19 08:13:39;;;;;;;;;;;15.60;61.60;;;;;;5045376;28;19912;-75
2021/03/19 08:16:18;;;;;;;;;;;15.60;61.60;;;;;;5048026;28;19986;-76
2021/03/19 08:19:03;;;;;;;;;;;15.70;61.60;;;;;;5030268;28;19912;-77
2021/03/19 08:21:51;;;;;;;;;;;15.70;61.50;;;;;;5068726;28;19912;-76
2021/03/19 08:24:33;;;;;;;;;;;15.70;61.50;;;;;;5051385;28;19963;-76
2021/03/19 08:27:19;;;;;;;;;;;15.80;61.50;;;;;;5046727;28;19967;-76
2021/03/19 08:30:05;;;;;;;;;;;15.70;61.50;;;;;;5046791;28;20290;-76
2021/03/19 08:32:35;;;;;;;;;;;15.70;61.60;;;;;;5028190;28;20359;-75
2021/03/19 08:35:04;;;;;;;;;;;15.70;61.60;;;;;;5043950;28;20007;-75
2021/03/19 08:37:32;;;;;;;;;;;15.70;61.60;;;;;;5056075;28;20370;-75
2021/03/19 08:39:58;;;;;;;;;;;15.70;61.60;;;;;;5050266;28;19921;-76
2021/03/19 08:42:28;;;;;;;;;;;15.70;61.60;;;;;;5042525;28;19925;-76
2021/03/19 08:44:54;;;;;;;;;;;15.70;61.60;;;;;;5025449;28;19917;-77
2021/03/19 08:47:25;;;;;;;;;;;15.70;61.50;;;;;;5048677;28;19919;-75
2021/03/19 08:50:11;;;;;;;;;;;15.70;61.50;;;;;;5067257;28;20003;-76
2021/03/19 08:52:40;;;;;;;;;;;15.80;61.40;;;;;;5041212;28;19936;-75
2021/03/19 08:55:11;;;;;;;;;;;15.80;61.30;;;;;;5047917;28;19945;-75
2021/03/19 08:57:37;;;;;;;;;;;15.80;61.30;;;;;;5040066;28;19999;-75
2021/03/19 09:00:05;;;;;;;;;;;15.80;61.30;;;;;;5047402;28;20455;-76
2021/03/19 09:02:30;;;;;;;;;;;15.80;61.30;;;;;;5045424;28;19958;-75
2021/03/19 09:04:56;;;;;;;;;;;15.80;61.30;;;;;;5052036;28;20011;-75
2021/03/19 09:07:37;;;;;;;;;;;15.80;61.30;;;;;;5059990;28;19974;-76
2021/03/19 09:10:12;;;;;;;;;;;15.80;61.20;;;;;;5040793;28;19921;-76
2021/03/19 09:12:58;;;;;;;;;;;15.80;61.10;;;;;;5062311;28;19961;-75
2021/03/19 09:15:27;;;;;;;;;;;15.80;61.10;;;;;;5021335;28;20267;-75
2021/03/19 09:17:53;;;;;;;;;;;15.80;61.00;;;;;;5044973;28;20366;-75
2021/03/19 09:20:27;;;;;;;;;;;15.80;61.00;;;;;;5061627;28;19913;-76
2021/03/19 09:23:08;;;;;;;;;;;15.80;61.10;;;;;;5065428;28;19934;-75
2021/03/19 09:25:37;;;;;;;;;;;15.80;61.10;;;;;;5052050;28;20012;-76
2021/03/19 09:28:02;;;;;;;;;;;15.80;61.10;;;;;;5046127;28;20405;-78
2021/03/19 09:30:41;;;;;;;;;;;15.80;61.20;;;;;;5041828;28;19920;-76
2021/03/19 09:33:12;;;;;;;;;;;15.80;61.20;;;;;;5052651;28;19913;-75
2021/03/19 09:35:37;;;;;;;;;;;15.80;61.20;;;;;;5031632;28;19913;-76
2021/03/19 09:38:23;;;;;;;;;;;15.80;61.20;;;;;;5058404;28;20416;-77
2021/03/19 09:40:59;;;;;;;;;;;15.80;61.30;;;;;;5014413;28;20382;-76
2021/03/19 09:43:42;;;;;;;;;;;15.70;61.30;;;;;;5024570;28;19917;-75
2021/03/19 09:46:16;;;;;;;;;;;15.80;61.30;;;;;;5043132;28;20006;-75
2021/03/19 09:48:56;;;;;;;;;;;15.80;61.30;;;;;;5049804;28;20368;-75
2021/03/19 09:51:41;;;;;;;;;;;15.80;61.40;;;;;;5043163;28;19912;-76
2021/03/19 09:54:16;;;;;;;;;;;15.80;61.40;;;;;;5034118;28;19913;-75
2021/03/19 09:56:42;;;;;;;;;;;15.80;61.30;;;;;;5045009;28;19913;-76
2021/03/19 09:59:13;;;;;;;;;;;15.80;61.30;;;;;;5046456;28;20302;-76
2021/03/19 10:01:41;;;;;;;;;;;15.80;61.30;;;;;;5047758;28;20123;-76
2021/03/19 10:04:07;;;;;;;;;;;15.80;61.30;;;;;;5030720;28;19920;-76
2021/03/19 10:06:40;;;;;;;;;;;15.80;61.30;;;;;;5028178;28;19944;-77
2021/03/19 10:09:12;;;;;;;;;;;15.70;61.30;;;;;;5047666;28;20007;-76
2021/03/19 10:11:52;;;;;;;;;;;15.80;61.30;;;;;;5046823;28;19924;-75
2021/03/19 10:14:26;;;;;;;;;;;15.80;61.20;;;;;;5063161;28;19913;-76
2021/03/19 10:17:03;;;;;;;;;;;15.80;61.10;;;;;;5041363;28;19944;-75
2021/03/19 10:19:33;;;;;;;;;;;15.80;61.10;;;;;;5034959;28;20274;-75
2021/03/19 10:21:58;;;;;;;;;;;15.80;60.90;;;;;;5039748;28;19913;-75
2021/03/19 10:24:27;;;;;;;;;;;15.90;60.80;;;;;;5051779;28;19928;-75
2021/03/19 10:26:58;;;;;;;;;;;16.00;60.70;;;;;;5033656;28;19944;-76
2021/03/19 10:29:27;;;;;;;;;;;16.00;60.60;;;;;;5037859;28;19971;-75
2021/03/19 10:31:52;;;;;;;;;;;16.00;60.50;;;;;;5043070;28;19917;-77
2021/03/19 10:34:44;;;;;;;;;;;16.00;60.40;;;;;;5051149;28;19920;-76
2021/03/19 10:37:15;;;;;;;;;;;16.00;60.30;;;;;;5065020;28;19974;-75
2021/03/19 10:39:46;;;;;;;;;;;16.10;60.40;;;;;;5046104;28;19921;-77
2021/03/19 10:42:19;;;;;;;;;;;16.00;60.40;;;;;;5050180;28;19921;-77
2021/03/19 10:44:51;;;;;;;;;;;16.00;60.60;;;;;;5051660;28;19921;-75
2021/03/19 10:47:19;;;;;;;;;;;16.00;60.60;;;;;;5059100;28;19917;-78
2021/03/19 10:49:45;;;;;;;;;;;15.90;60.70;;;;;;5060844;28;20374;-75
2021/03/19 10:52:14;;;;;;;;;;;15.90;60.70;;;;;;5064740;28;19938;-75
2021/03/19 10:54:42;;;;;;;;;;;15.90;60.80;;;;;;5054936;28;19959;-76
2021/03/19 10:57:24;;;;;;;;;;;16.00;60.70;;;;;;5052360;28;19913;-76
2021/03/19 10:59:52;;;;;;;;;;;16.00;60.60;;;;;;5045537;28;19927;-75
2021/03/19 11:02:20;;;;;;;;;;;16.00;60.50;;;;;;5028009;28;19995;-78
2021/03/19 11:04:52;;;;;;;;;;;16.00;60.50;;;;;;5063436;28;19917;-76
2021/03/19 11:07:25;;;;;;;;;;;16.00;60.50;;;;;;5048594;28;19913;-76
2021/03/19 11:09:59;;;;;;;;;;;16.00;60.60;;;;;;5049975;28;20309;-76
2021/03/19 11:12:30;;;;;;;;;;;16.00;60.50;;;;;;5047399;28;19916;-75
2021/03/19 11:14:57;;;;;;;;;;;16.00;60.50;;;;;;5046321;28;20250;-75
2021/03/19 11:17:22;;;;;;;;;;;16.10;60.80;;;;;;5052019;28;19919;-75
2021/03/19 11:19:58;;;;;;;;;;;16.00;60.80;;;;;;5031750;28;20282;-76
2021/03/19 11:22:31;;;;;;;;;;;16.00;60.70;;;;;;5032817;28;20309;-75
2021/03/19 11:25:08;;;;;;;;;;;16.00;60.70;;;;;;5046703;28;19924;-75
2021/03/19 11:27:38;;;;;;;;;;;16.00;60.70;;;;;;5045803;28;19932;-75
2021/03/19 11:30:27;;;;;;;;;;;16.00;61.10;;;;;;5072500;28;19921;-75
2021/03/19 11:33:10;;;;;;;;;;;16.10;61.00;;;;;;5048166;28;20030;-74
2021/03/19 11:35:36;;;;;;;;;;;16.10;60.90;;;;;;5046421;28;20292;-73
2021/03/19 11:38:02;;;;;;;;;;;16.10;61.10;;;;;;5058593;28;20039;-73
2021/03/19 11:40:39;;;;;;;;;;;16.10;61.80;;;;;;5026853;28;19929;-74
2021/03/19 11:43:06;;;;;;;;;;;16.10;61.90;;;;;;5026073;28;20965;-74
2021/03/19 11:45:39;;;;;;;;;;;16.10;62.00;;;;;;5030586;28;19924;-74
2021/03/19 11:48:09;;;;;;;;;;;16.20;61.90;;;;;;5030414;28;19952;-74
2021/03/19 11:50:36;;;;;;;;;;;16.20;61.70;;;;;;5060188;28;19954;-74
2021/03/19 11:53:04;;;;;;;;;;;16.30;61.50;;;;;;5040183;28;19921;-75
2021/03/19 11:55:33;;;;;;;;;;;16.30;61.40;;;;;;5014683;28;20040;-73
2021/03/19 11:58:04;;;;;;;;;;;16.30;61.20;;;;;;5032145;28;20275;-74
2021/03/19 12:00:30;;;;;;;;;;;16.40;61.20;;;;;;5042503;28;19921;-73
2021/03/19 12:03:02;;;;;;;;;;;16.30;61.30;;;;;;5026856;28;19924;-73
2021/03/19 12:05:30;;;;;;;;;;;16.30;61.30;;;;;;5022329;28;21504;-73
2021/03/19 12:07:55;;;;;;;;;;;16.30;61.30;;;;;;5022391;28;20379;-73
2021/03/19 12:10:27;;;;;;;;;;;16.30;61.20;;;;;;5025550;28;19959;-74
2021/03/19 12:12:52;;;;;;;;;;;16.30;61.20;;;;;;5029755;28;19921;-74
2021/03/19 12:15:18;;;;;;;;;;;16.40;61.30;;;;;;5031556;28;19920;-74
2021/03/19 12:17:44;;;;;;;;;;;16.40;61.50;;;;;;5031757;28;19917;-75
2021/03/19 12:20:15;;;;;;;;;;;16.40;61.50;;;;;;5029582;28;19913;-75
2021/03/19 12:22:41;;;;;;;;;;;16.40;61.80;;;;;;5028178;28;19917;-74
2021/03/19 12:25:08;;;;;;;;;;;16.40;61.90;;;;;;5028808;28;19924;-73
2021/03/19 12:27:34;;;;;;;;;;;16.40;62.00;;;;;;5024700;28;19940;-74
2021/03/19 12:29:59;;;;;;;;;;;16.50;61.90;;;;;;5030162;28;20375;-74
2021/03/19 12:32:25;;;;;;;;;;;16.50;61.90;;;;;;5028145;28;19921;-73
2021/03/19 12:34:50;;;;;;;;;;;16.60;61.70;;;;;;5021335;28;20016;-74
2021/03/19 12:37:16;;;;;;;;;;;16.60;61.70;;;;;;5025698;28;19921;-73
2021/03/19 12:39:41;;;;;;;;;;;16.70;61.80;;;;;;5034233;28;19943;-75
2021/03/19 12:42:07;;;;;;;;;;;16.70;61.80;;;;;;5034544;28;19948;-73
2021/03/19 12:44:33;;;;;;;;;;;16.70;61.80;;;;;;5018271;28;19974;-75
2021/03/19 12:47:00;;;;;;;;;;;16.60;61.90;;;;;;5035881;28;19909;-73
2021/03/19 12:49:26;;;;;;;;;;;16.60;62.00;;;;;;5035661;28;19956;-73
2021/03/19 12:51:51;;;;;;;;;;;16.60;62.20;;;;;;5051135;28;19948;-73
2021/03/19 12:54:18;;;;;;;;;;;16.60;62.20;;;;;;5027468;28;19909;-73
2021/03/19 12:56:43;;;;;;;;;;;16.60;62.20;;;;;;5035918;28;19917;-74
2021/03/19 12:59:09;;;;;;;;;;;16.60;62.30;;;;;;5018325;28;20274;-73
2021/03/19 13:01:34;;;;;;;;;;;16.60;62.30;;;;;;5048134;28;19913;-74
2021/03/19 13:04:00;;;;;;;;;;;16.60;62.40;;;;;;5059784;28;20004;-73
2021/03/19 13:06:27;;;;;;;;;;;16.50;62.60;;;;;;5035507;28;20020;-73
2021/03/19 13:08:53;;;;;;;;;;;16.50;62.70;;;;;;5035401;28;20485;-74
2021/03/19 13:11:19;;;;;;;;;;;16.50;62.80;;;;;;5018349;28;20409;-74
2021/03/19 13:13:44;;;;;;;;;;;16.50;62.80;;;;;;5018149;28;19909;-74
2021/03/19 13:16:10;;;;;;;;;;;16.50;62.80;;;;;;5017752;28;19959;-74
2021/03/19 13:18:36;;;;;;;;;;;16.50;62.70;;;;;;5050792;28;19913;-73
2021/03/19 13:21:01;;;;;;;;;;;16.50;62.60;;;;;;5018196;28;19932;-73
2021/03/19 13:23:27;;;;;;;;;;;16.50;62.60;;;;;;5035155;28;20067;-73
2021/03/19 13:25:52;;;;;;;;;;;16.50;62.80;;;;;;5050621;28;20278;-74
2021/03/19 13:28:18;;;;;;;;;;;16.40;62.80;;;;;;5034418;28;19925;-75
2021/03/19 13:30:44;;;;;;;;;;;16.40;63.00;;;;;;5064079;28;20007;-75
2021/03/19 13:33:11;;;;;;;;;;;16.30;63.10;;;;;;5033037;28;19921;-74
2021/03/19 13:35:38;;;;;;;;;;;16.40;63.20;;;;;;5033972;28;19910;-73
2021/03/19 13:38:09;;;;;;;;;;;16.30;63.20;;;;;;5017877;28;20196;-74
2021/03/19 13:40:40;;;;;;;;;;;16.40;63.10;;;;;;5017589;28;19961;-74
2021/03/19 13:43:06;;;;;;;;;;;16.30;63.10;;;;;;5017250;28;20327;-73
2021/03/19 13:45:31;;;;;;;;;;;16.40;63.10;;;;;;5034664;28;19921;-73
2021/03/19 13:47:57;;;;;;;;;;;16.40;63.10;;;;;;5017809;28;19920;-73
2021/03/19 13:50:23;;;;;;;;;;;16.40;63.00;;;;;;5034892;28;19913;-74
2021/03/19 13:52:53;;;;;;;;;;;16.40;62.90;;;;;;5034498;28;19913;-74
2021/03/19 13:55:19;;;;;;;;;;;16.50;62.90;;;;;;5034618;28;19913;-73
2021/03/19 13:57:49;;;;;;;;;;;16.50;62.80;;;;;;5034508;28;19909;-74
2021/03/19 14:00:17;;;;;;;;;;;16.50;62.70;;;;;;5035898;28;19921;-72
2021/03/19 14:02:43;;;;;;;;;;;16.50;62.80;;;;;;5030220;28;19964;-74
2021/03/19 14:05:08;;;;;;;;;;;16.50;62.70;;;;;;5049905;28;20298;-73
2021/03/19 14:07:34;;;;;;;;;;;16.50;62.80;;;;;;5034492;28;19913;-73
2021/03/19 14:10:00;;;;;;;;;;;16.50;62.80;;;;;;5034528;28;19917;-73
2021/03/19 14:12:26;;;;;;;;;;;16.50;62.70;;;;;;5017046;28;19913;-73
2021/03/19 14:14:51;;;;;;;;;;;16.50;62.70;;;;;;5017087;28;19913;-73
2021/03/19 14:17:18;;;;;;;;;;;16.50;62.70;;;;;;5017014;28;19913;-75
2021/03/19 14:19:43;;;;;;;;;;;16.50;62.50;;;;;;5017187;28;19917;-74
2021/03/19 14:22:09;;;;;;;;;;;16.50;62.50;;;;;;5016884;28;19959;-73
2021/03/19 14:24:34;;;;;;;;;;;16.50;62.50;;;;;;5017119;28;19917;-73
2021/03/19 14:27:00;;;;;;;;;;;16.50;62.50;;;;;;5033149;28;19917;-73
2021/03/19 14:29:26;;;;;;;;;;;16.50;62.50;;;;;;5033758;28;19913;-73
2021/03/19 14:31:51;;;;;;;;;;;16.60;62.50;;;;;;5047921;28;20383;-73